Time;durP1;ratioP1;P1;durP2;ratioP2;P2;SDS_P1;SDS_P2;PMS_P1;PMS_P2;Temp;Humidity;BMP_temperature;BMP_pressure;BME280_temperature;BME280_humidity;BME280_pressure;Samples;Min_cycle;Max_cycle;Signal;HPM_P1;HPM_P2
2024/03/16 00:00:47;;;;;;;;;;;;;;;;;;5005469;28;19924;-74
2024/03/16 00:03:12;;;;;;;;;;;;;;;;;;5009015;28;19928;-72
2024/03/16 00:05:37;;;;;;;;;;;;;;;;;;5009419;28;19925;-72
2024/03/16 00:08:05;;;;;;;;;;;;;;;;;;4987152;28;19952;-70
2024/03/16 00:10:33;;;;;;;;;;;;;;;;;;5008950;28;20301;-70
2024/03/16 00:13:02;;;;;;;;;;;;;;;;;;4989764;28;19917;-69
2024/03/16 00:15:29;;;;;;;;;;;;;;;;;;4975940;28;20345;-74
2024/03/16 00:17:55;;;;;;;;;;;;;;;;;;5005156;28;19924;-68
2024/03/16 00:20:25;;;;;;;;;;;;;;;;;;4990403;28;19960;-68
2024/03/16 00:22:51;;;;;;;;;;;;;;;;;;5010885;28;20618;-68
2024/03/16 00:25:16;;;;;;;;;;;;;;;;;;4987257;28;20832;-68
2024/03/16 00:27:41;;;;;;;;;;;;;;;;;;5009191;28;19917;-73
2024/03/16 00:30:07;;;;;;;;;;;;;;;;;;4993616;28;20432;-74
2024/03/16 00:32:33;;;;;;;;;;;;;;;;;;4992287;28;19921;-72
2024/03/16 00:34:58;;;;;;;;;;;;;;;;;;5010459;28;20027;-71
2024/03/16 00:37:27;;;;;;;;;;;;;;;;;;4969988;28;19921;-72
2024/03/16 00:39:52;;;;;;;;;;;;;;;;;;4995277;28;19921;-75
2024/03/16 00:42:19;;;;;;;;;;;;;;;;;;5008185;28;19921;-76
2024/03/16 00:44:45;;;;;;;;;;;;;;;;;;5004070;28;19956;-75
2024/03/16 00:47:10;;;;;;;;;;;;;;;;;;4984502;28;20514;-75
2024/03/16 00:49:36;;;;;;;;;;;;;;;;;;5008274;28;19917;-75
2024/03/16 00:52:01;;;;;;;;;;;;;;;;;;5005834;28;19928;-75
2024/03/16 00:54:29;;;;;;;;;;;;;;;;;;5010705;28;20311;-77
2024/03/16 00:56:55;;;;;;;;;;;;;;;;;;4989808;28;21488;-76
2024/03/16 00:59:20;;;;;;;;;;;;;;;;;;5006534;28;31024;-73
2024/03/16 01:01:46;;;;;;;;;;;;;;;;;;4979943;28;20446;-75
2024/03/16 01:04:11;;;;;;;;;;;;;;;;;;5009044;28;20007;-75
2024/03/16 01:06:55;;;;;;;;;;;;;;;;;;4987028;28;19921;-78
2024/03/16 01:09:26;;;;;;;;;;;;;;;;;;5010243;28;19974;-74
2024/03/16 01:11:52;;;;;;;;;;;;;;;;;;5008787;28;19933;-75
2024/03/16 01:14:17;;;;;;;;;;;;;;;;;;5005294;28;19929;-74
2024/03/16 01:16:42;;;;;;;;;;;;;;;;;;4986110;28;20285;-78
2024/03/16 01:19:08;;;;;;;;;;;;;;;;;;5006533;28;19917;-73
2024/03/16 01:21:33;;;;;;;;;;;;;;;;;;4990489;28;21467;-72
2024/03/16 01:23:58;;;;;;;;;;;;;;;;;;4992236;28;19995;-71
2024/03/16 01:26:24;;;;;;;;;;;;;;;;;;5009286;28;19928;-75
2024/03/16 01:28:49;;;;;;;;;;;;;;;;;;5008618;28;20341;-76
2024/03/16 01:31:14;;;;;;;;;;;;;;;;;;4971688;28;19917;-74
2024/03/16 01:33:42;;;;;;;;;;;;;;;;;;4987055;28;19922;-77
2024/03/16 01:36:07;;;;;;;;;;;;;;;;;;4991547;28;20058;-74
2024/03/16 01:38:33;;;;;;;;;;;;;;;;;;4994808;28;19927;-75
2024/03/16 01:40:58;;;;;;;;;;;;;;;;;;5008237;28;19917;-75
2024/03/16 01:43:23;;;;;;;;;;;;;;;;;;4977074;28;20008;-76
2024/03/16 01:45:49;;;;;;;;;;;;;;;;;;5003298;28;19937;-75
2024/03/16 01:48:14;;;;;;;;;;;;;;;;;;5008928;28;19921;-75
2024/03/16 01:50:39;;;;;;;;;;;;;;;;;;4988000;28;19920;-73
2024/03/16 01:53:05;;;;;;;;;;;;;;;;;;5004519;28;19921;-73
2024/03/16 01:55:30;;;;;;;;;;;;;;;;;;4990932;28;20542;-72
2024/03/16 01:57:57;;;;;;;;;;;;;;;;;;5007563;28;19921;-73
2024/03/16 02:00:23;;;;;;;;;;;;;;;;;;5007388;28;20375;-72
2024/03/16 02:02:49;;;;;;;;;;;;;;;;;;4967456;28;19922;-72
2024/03/16 02:05:14;;;;;;;;;;;;;;;;;;4985182;28;20296;-71
2024/03/16 02:07:40;;;;;;;;;;;;;;;;;;4977011;28;20067;-69
2024/03/16 02:10:08;;;;;;;;;;;;;;;;;;5005925;28;20019;-70
2024/03/16 02:12:33;;;;;;;;;;;;;;;;;;4970889;28;20198;-70
2024/03/16 02:14:59;;;;;;;;;;;;;;;;;;4982709;28;20292;-68
2024/03/16 02:17:24;;;;;;;;;;;;;;;;;;4970935;28;20093;-70
2024/03/16 02:19:50;;;;;;;;;;;;;;;;;;4956385;28;20267;-68
2024/03/16 02:22:15;;;;;;;;;;;;;;;;;;4986037;28;20020;-69
2024/03/16 02:24:41;;;;;;;;;;;;;;;;;;4970513;28;19991;-70
2024/03/16 02:27:09;;;;;;;;;;;;;;;;;;4987061;28;20447;-69
2024/03/16 02:29:36;;;;;;;;;;;;;;;;;;4971046;28;19925;-69
2024/03/16 02:32:02;;;;;;;;;;;;;;;;;;4981903;28;19971;-70
2024/03/16 02:34:31;;;;;;;;;;;;;;;;;;4986568;28;19942;-69
2024/03/16 02:36:56;;;;;;;;;;;;;;;;;;4970961;28;20413;-69
2024/03/16 02:39:22;;;;;;;;;;;;;;;;;;4986165;28;19952;-69
2024/03/16 02:41:47;;;;;;;;;;;;;;;;;;4971229;28;20293;-69
2024/03/16 02:44:15;;;;;;;;;;;;;;;;;;4966430;28;20009;-69
2024/03/16 02:46:40;;;;;;;;;;;;;;;;;;4983594;28;19921;-69
2024/03/16 02:49:05;;;;;;;;;;;;;;;;;;4968398;28;20265;-70
2024/03/16 02:51:34;;;;;;;;;;;;;;;;;;4970504;28;20201;-70
2024/03/16 02:53:59;;;;;;;;;;;;;;;;;;4969870;28;19924;-70
2024/03/16 02:56:24;;;;;;;;;;;;;;;;;;4968481;28;19923;-69
2024/03/16 02:58:50;;;;;;;;;;;;;;;;;;4987048;28;20537;-70
2024/03/16 03:01:16;;;;;;;;;;;;;;;;;;4988351;28;19921;-69
2024/03/16 03:03:41;;;;;;;;;;;;;;;;;;4987955;28;19933;-69
2024/03/16 03:06:08;;;;;;;;;;;;;;;;;;4967082;28;20377;-69
2024/03/16 03:08:33;;;;;;;;;;;;;;;;;;4987953;28;19926;-70
2024/03/16 03:10:59;;;;;;;;;;;;;;;;;;4989129;28;20298;-71
2024/03/16 03:13:24;;;;;;;;;;;;;;;;;;4990350;28;20009;-69
2024/03/16 03:15:50;;;;;;;;;;;;;;;;;;5006405;28;20043;-68
2024/03/16 03:18:15;;;;;;;;;;;;;;;;;;5009436;28;19924;-69
2024/03/16 03:20:41;;;;;;;;;;;;;;;;;;5008742;28;20006;-70
2024/03/16 03:23:08;;;;;;;;;;;;;;;;;;5009342;28;20028;-70
2024/03/16 03:25:33;;;;;;;;;;;;;;;;;;5011861;28;19924;-70
2024/03/16 03:27:59;;;;;;;;;;;;;;;;;;5004746;28;20062;-70
2024/03/16 03:30:24;;;;;;;;;;;;;;;;;;4991185;28;20324;-71
2024/03/16 03:32:50;;;;;;;;;;;;;;;;;;4993929;28;19917;-69
2024/03/16 03:35:15;;;;;;;;;;;;;;;;;;5009556;28;20294;-72
2024/03/16 03:37:40;;;;;;;;;;;;;;;;;;4989031;28;19917;-70
2024/03/16 03:40:09;;;;;;;;;;;;;;;;;;5009385;28;21885;-69
2024/03/16 03:42:35;;;;;;;;;;;;;;;;;;4989982;28;19921;-70
2024/03/16 03:45:10;;;;;;;;;;;;;;;;;;4986287;28;20020;-68
2024/03/16 03:47:49;;;;;;;;;;;;;;;;;;5008758;28;19921;-69
2024/03/16 03:50:26;;;;;;;;;;;;;;;;;;5008168;28;19917;-69
2024/03/16 03:52:52;;;;;;;;;;;;;;;;;;4988130;28;19972;-70
2024/03/16 03:55:18;;;;;;;;;;;;;;;;;;4988390;28;19931;-69
2024/03/16 03:57:44;;;;;;;;;;;;;;;;;;4993348;28;20399;-71
2024/03/16 04:00:09;;;;;;;;;;;;;;;;;;5003644;28;19924;-72
2024/03/16 04:02:34;;;;;;;;;;;;;;;;;;5008641;28;20373;-70
2024/03/16 04:05:00;;;;;;;;;;;;;;;;;;4991787;28;20068;-70
2024/03/16 04:07:25;;;;;;;;;;;;;;;;;;5004507;28;19917;-70
2024/03/16 04:09:50;;;;;;;;;;;;;;;;;;4994426;28;20416;-71
2024/03/16 04:12:16;;;;;;;;;;;;;;;;;;4987370;28;19929;-69
2024/03/16 04:14:41;;;;;;;;;;;;;;;;;;4967391;28;19917;-72
2024/03/16 04:17:07;;;;;;;;;;;;;;;;;;5008028;28;19940;-69
2024/03/16 04:19:35;;;;;;;;;;;;;;;;;;4986323;28;19991;-70
2024/03/16 04:22:00;;;;;;;;;;;;;;;;;;4988203;28;19921;-69
2024/03/16 04:24:29;;;;;;;;;;;;;;;;;;5009039;28;20779;-70
2024/03/16 04:26:54;;;;;;;;;;;;;;;;;;5009591;28;19977;-71
2024/03/16 04:29:19;;;;;;;;;;;;;;;;;;5009845;28;19917;-67
2024/03/16 04:31:47;;;;;;;;;;;;;;;;;;5009832;28;19921;-69
2024/03/16 04:34:13;;;;;;;;;;;;;;;;;;4988531;28;19917;-70
2024/03/16 04:36:38;;;;;;;;;;;;;;;;;;4988686;28;19920;-71
2024/03/16 04:39:03;;;;;;;;;;;;;;;;;;5009013;28;19924;-70
2024/03/16 04:41:29;;;;;;;;;;;;;;;;;;4988893;28;19921;-69
2024/03/16 04:43:54;;;;;;;;;;;;;;;;;;4987591;28;20023;-71
2024/03/16 04:49:36;;;;;;;;;;;;;;;;;;5009520;28;19920;-70
2024/03/16 04:52:01;;;;;;;;;;;;;;;;;;4986973;28;19921;-70
2024/03/16 04:54:27;;;;;;;;;;;;;;;;;;5010498;28;20016;-70
2024/03/16 04:56:52;;;;;;;;;;;;;;;;;;5005526;28;19925;-70
2024/03/16 05:02:34;;;;;;;;;;;;;;;;;;5008773;28;19928;-70
2024/03/16 05:04:59;;;;;;;;;;;;;;;;;;5008756;28;19921;-71
2024/03/16 05:07:25;;;;;;;;;;;;;;;;;;5006035;28;20008;-70
2024/03/16 05:09:50;;;;;;;;;;;;;;;;;;5006480;28;20034;-70
2024/03/16 05:12:18;;;;;;;;;;;;;;;;;;4988960;28;19991;-70
2024/03/16 05:14:43;;;;;;;;;;;;;;;;;;5006176;28;20233;-71
2024/03/16 05:17:08;;;;;;;;;;;;;;;;;;4990989;28;19937;-71
2024/03/16 05:19:34;;;;;;;;;;;;;;;;;;4987714;28;20208;-70
2024/03/16 05:21:59;;;;;;;;;;;;;;;;;;5006799;28;20048;-71
2024/03/16 05:24:24;;;;;;;;;;;;;;;;;;4985436;28;20307;-70
2024/03/16 05:26:50;;;;;;;;;;;;;;;;;;4993383;28;20519;-69
2024/03/16 05:29:15;;;;;;;;;;;;;;;;;;5008580;28;19946;-70
2024/03/16 05:31:41;;;;;;;;;;;;;;;;;;4989047;28;20498;-71
2024/03/16 05:34:06;;;;;;;;;;;;;;;;;;5001377;28;19928;-70
2024/03/16 05:36:31;;;;;;;;;;;;;;;;;;5001789;28;19967;-70
2024/03/16 05:38:57;;;;;;;;;;;;;;;;;;4988010;28;19921;-71
2024/03/16 05:41:24;;;;;;;;;;;;;;;;;;4974617;28;19940;-70
2024/03/16 05:43:52;;;;;;;;;;;;;;;;;;5000877;28;19953;-70
2024/03/16 05:46:17;;;;;;;;;;;;;;;;;;4983112;28;19925;-68
2024/03/16 05:48:43;;;;;;;;;;;;;;;;;;5005827;28;19921;-68
2024/03/16 05:51:08;;;;;;;;;;;;;;;;;;5006721;28;19921;-69
2024/03/16 05:53:34;;;;;;;;;;;;;;;;;;4987773;28;20054;-69
2024/03/16 05:55:59;;;;;;;;;;;;;;;;;;4992223;28;20431;-70
2024/03/16 05:58:24;;;;;;;;;;;;;;;;;;5006845;28;19923;-68
2024/03/16 06:00:50;;;;;;;;;;;;;;;;;;4986681;28;19944;-68
2024/03/16 06:03:15;;;;;;;;;;;;;;;;;;4987280;28;19917;-68
2024/03/16 06:05:45;;;;;;;;;;;;;;;;;;5007283;28;19921;-69
2024/03/16 06:08:11;;;;;;;;;;;;;;;;;;5006572;28;19940;-68
2024/03/16 06:10:38;;;;;;;;;;;;;;;;;;5009153;28;19916;-68
2024/03/16 06:13:04;;;;;;;;;;;;;;;;;;5006934;28;19926;-68
2024/03/16 06:15:30;;;;;;;;;;;;;;;;;;5008087;28;19924;-68
2024/03/16 06:17:58;;;;;;;;;;;;;;;;;;5007641;28;19917;-68
2024/03/16 06:20:23;;;;;;;;;;;;;;;;;;4991400;28;20421;-68
2024/03/16 06:22:51;;;;;;;;;;;;;;;;;;4990132;28;20420;-68
2024/03/16 06:25:17;;;;;;;;;;;;;;;;;;4993653;28;19932;-69
2024/03/16 06:27:54;;;;;;;;;;;;;;;;;;4989949;28;20335;-68
2024/03/16 06:30:21;;;;;;;;;;;;;;;;;;5006905;28;20016;-68
2024/03/16 06:35:36;;;;;;;;;;;;;;;;;;5009313;28;20349;-68
2024/03/16 06:38:01;;;;;;;;;;;;;;;;;;4991891;28;20059;-68
2024/03/16 06:40:26;;;;;;;;;;;;;;;;;;4988408;28;20430;-68
2024/03/16 06:42:52;;;;;;;;;;;;;;;;;;4985128;28;20629;-68
2024/03/16 06:45:17;;;;;;;;;;;;;;;;;;5011219;28;19925;-68
2024/03/16 06:47:43;;;;;;;;;;;;;;;;;;5013500;28;19925;-66
2024/03/16 06:50:10;;;;;;;;;;;;;;;;;;4996293;28;19932;-67
2024/03/16 06:52:35;;;;;;;;;;;;;;;;;;4972396;28;19921;-68
2024/03/16 06:55:00;;;;;;;;;;;;;;;;;;4988907;28;19925;-66
2024/03/16 06:57:26;;;;;;;;;;;;;;;;;;4991936;28;19979;-67
2024/03/16 06:59:51;;;;;;;;;;;;;;;;;;4977121;28;20456;-68
2024/03/16 07:02:16;;;;;;;;;;;;;;;;;;4988235;28;19921;-67
2024/03/16 07:04:42;;;;;;;;;;;;;;;;;;5011956;28;20423;-67
2024/03/16 07:07:07;;;;;;;;;;;;;;;;;;4996107;28;19918;-67
2024/03/16 07:09:35;;;;;;;;;;;;;;;;;;4989621;28;20069;-67
2024/03/16 07:12:02;;;;;;;;;;;;;;;;;;5010129;28;20463;-69
2024/03/16 07:14:28;;;;;;;;;;;;;;;;;;4974639;28;19924;-68
2024/03/16 07:16:54;;;;;;;;;;;;;;;;;;4988261;28;20282;-68
2024/03/16 07:19:23;;;;;;;;;;;;;;;;;;5011534;28;19921;-67
2024/03/16 07:21:51;;;;;;;;;;;;;;;;;;4972352;28;20365;-67
2024/03/16 07:24:16;;;;;;;;;;;;;;;;;;4983240;28;20004;-67
2024/03/16 07:26:42;;;;;;;;;;;;;;;;;;4996431;28;19971;-67
2024/03/16 07:29:10;;;;;;;;;;;;;;;;;;5010733;28;19987;-68
2024/03/16 07:31:35;;;;;;;;;;;;;;;;;;4990478;28;20445;-67
2024/03/16 07:34:06;;;;;;;;;;;;;;;;;;5011996;28;19959;-66
2024/03/16 07:36:31;;;;;;;;;;;;;;;;;;4995400;28;19913;-67
2024/03/16 07:38:57;;;;;;;;;;;;;;;;;;5009715;28;19974;-67
2024/03/16 07:41:23;;;;;;;;;;;;;;;;;;4988693;28;19971;-68
2024/03/16 07:43:48;;;;;;;;;;;;;;;;;;4995465;28;19976;-68
2024/03/16 07:46:14;;;;;;;;;;;;;;;;;;5007537;28;19925;-68
2024/03/16 07:48:39;;;;;;;;;;;;;;;;;;5012382;28;19917;-70
2024/03/16 07:51:05;;;;;;;;;;;;;;;;;;4994463;28;19916;-71
2024/03/16 07:53:33;;;;;;;;;;;;;;;;;;4975243;28;20430;-70
2024/03/16 07:55:59;;;;;;;;;;;;;;;;;;5011226;28;19924;-70
2024/03/16 07:58:24;;;;;;;;;;;;;;;;;;4994307;28;19921;-70
2024/03/16 08:00:50;;;;;;;;;;;;;;;;;;4990345;28;19917;-71
2024/03/16 08:03:15;;;;;;;;;;;;;;;;;;5011005;28;19913;-72
2024/03/16 08:05:44;;;;;;;;;;;;;;;;;;5009682;28;19925;-71
2024/03/16 08:08:09;;;;;;;;;;;;;;;;;;4994017;28;20068;-73
2024/03/16 08:13:19;;;;;;;;;;;;;;;;;;5009071;28;19964;-76
2024/03/16 08:15:46;;;;;;;;;;;;;;;;;;5007440;28;20000;-73
2024/03/16 08:18:12;;;;;;;;;;;;;;;;;;5011555;28;20130;-73
2024/03/16 08:20:37;;;;;;;;;;;;;;;;;;5011007;28;19917;-73
2024/03/16 08:23:05;;;;;;;;;;;;;;;;;;5011511;28;19917;-73
2024/03/16 08:25:33;;;;;;;;;;;;;;;;;;4989481;28;20497;-74
2024/03/16 08:27:58;;;;;;;;;;;;;;;;;;4975507;28;19921;-75
2024/03/16 08:30:25;;;;;;;;;;;;;;;;;;4991766;28;19982;-72
2024/03/16 08:32:50;;;;;;;;;;;;;;;;;;5011934;28;20012;-75
2024/03/16 08:35:15;;;;;;;;;;;;;;;;;;4989481;28;20390;-76
2024/03/16 08:37:41;;;;;;;;;;;;;;;;;;5009752;28;19948;-77
2024/03/16 08:40:11;;;;;;;;;;;;;;;;;;5011871;28;20059;-75
2024/03/16 08:42:37;;;;;;;;;;;;;;;;;;4991037;28;19921;-77
2024/03/16 08:45:04;;;;;;;;;;;;;;;;;;4991475;28;19933;-77
2024/03/16 08:47:29;;;;;;;;;;;;;;;;;;5010869;28;20653;-75
2024/03/16 08:49:55;;;;;;;;;;;;;;;;;;4973246;28;20024;-76
2024/03/16 08:52:22;;;;;;;;;;;;;;;;;;5010056;28;20337;-76
2024/03/16 08:54:47;;;;;;;;;;;;;;;;;;5012863;28;19921;-76
2024/03/16 08:57:13;;;;;;;;;;;;;;;;;;5013488;28;19917;-77
2024/03/16 08:59:43;;;;;;;;;;;;;;;;;;5011556;28;20032;-73
2024/03/16 09:02:08;;;;;;;;;;;;;;;;;;5009989;28;20001;-75
2024/03/16 09:04:33;;;;;;;;;;;;;;;;;;5010542;28;19944;-74
2024/03/16 09:06:59;;;;;;;;;;;;;;;;;;4995094;28;20373;-76
2024/03/16 09:09:27;;;;;;;;;;;;;;;;;;5011029;28;19925;-79
2024/03/16 09:11:52;;;;;;;;;;;;;;;;;;5012145;28;19929;-75
2024/03/16 09:14:19;;;;;;;;;;;;;;;;;;4989929;28;19924;-77
2024/03/16 09:16:46;;;;;;;;;;;;;;;;;;4973797;28;20459;-76
2024/03/16 09:19:11;;;;;;;;;;;;;;;;;;4988972;28;20238;-75
2024/03/16 09:21:36;;;;;;;;;;;;;;;;;;5012748;28;19913;-77
2024/03/16 09:24:01;;;;;;;;;;;;;;;;;;5010761;28;19921;-77
2024/03/16 09:26:27;;;;;;;;;;;;;;;;;;4990244;28;19925;-76
2024/03/16 09:28:53;;;;;;;;;;;;;;;;;;5013254;28;19924;-80
2024/03/16 09:31:18;;;;;;;;;;;;;;;;;;5012703;28;19922;-79
2024/03/16 09:33:43;;;;;;;;;;;;;;;;;;5013054;28;19928;-76
2024/03/16 09:36:09;;;;;;;;;;;;;;;;;;5010916;28;19917;-75
2024/03/16 09:38:34;;;;;;;;;;;;;;;;;;5012149;28;19921;-76
2024/03/16 09:41:00;;;;;;;;;;;;;;;;;;5012261;28;19921;-77
2024/03/16 09:43:25;;;;;;;;;;;;;;;;;;5010148;28;20176;-75
2024/03/16 09:45:51;;;;;;;;;;;;;;;;;;4972835;28;19976;-78
2024/03/16 09:48:16;;;;;;;;;;;;;;;;;;5010320;28;19928;-78
2024/03/16 09:50:44;;;;;;;;;;;;;;;;;;5013391;28;20432;-77
2024/03/16 09:53:09;;;;;;;;;;;;;;;;;;4995849;28;20289;-73
2024/03/16 09:55:34;;;;;;;;;;;;;;;;;;5011963;28;19932;-75
2024/03/16 09:58:00;;;;;;;;;;;;;;;;;;4989917;28;19914;-78
2024/03/16 10:03:17;;;;;;;;;;;;;;;;;;4994239;28;20360;-75
2024/03/16 10:05:43;;;;;;;;;;;;;;;;;;5014498;28;19932;-77
2024/03/16 10:08:08;;;;;;;;;;;;;;;;;;4989248;28;19921;-77
2024/03/16 10:10:34;;;;;;;;;;;;;;;;;;5012384;28;20377;-75
2024/03/16 10:12:59;;;;;;;;;;;;;;;;;;5009290;28;19960;-80
2024/03/16 10:15:25;;;;;;;;;;;;;;;;;;5013015;28;19925;-76
2024/03/16 10:17:50;;;;;;;;;;;;;;;;;;5013044;28;19917;-76
2024/03/16 10:20:15;;;;;;;;;;;;;;;;;;4994319;28;20405;-80
2024/03/16 10:22:41;;;;;;;;;;;;;;;;;;4999563;28;20827;-78
2024/03/16 10:25:09;;;;;;;;;;;;;;;;;;4995285;28;19956;-79
2024/03/16 10:27:35;;;;;;;;;;;;;;;;;;4995726;28;20004;-77
2024/03/16 10:30:00;;;;;;;;;;;;;;;;;;5016341;28;19921;-77
2024/03/16 10:32:25;;;;;;;;;;;;;;;;;;4994655;28;20134;-78
2024/03/16 10:34:51;;;;;;;;;;;;;;;;;;5017091;28;19921;-79
2024/03/16 10:37:17;;;;;;;;;;;;;;;;;;5014231;28;19952;-79
2024/03/16 10:39:43;;;;;;;;;;;;;;;;;;5016590;28;19956;-80
2024/03/16 10:42:08;;;;;;;;;;;;;;;;;;4999839;28;19972;-80
2024/03/16 10:44:33;;;;;;;;;;;;;;;;;;4992838;28;20011;-78
2024/03/16 10:47:05;;;;;;;;;;;;;;;;;;4977011;28;19925;-79
2024/03/16 10:49:30;;;;;;;;;;;;;;;;;;5016880;28;20490;-79
2024/03/16 10:51:56;;;;;;;;;;;;;;;;;;5017963;28;19928;-78
2024/03/16 10:54:22;;;;;;;;;;;;;;;;;;5016127;28;19936;-81
2024/03/16 10:56:47;;;;;;;;;;;;;;;;;;5016042;28;19926;-79
2024/03/16 10:59:13;;;;;;;;;;;;;;;;;;4995651;28;20317;-79
2024/03/16 11:01:39;;;;;;;;;;;;;;;;;;5015669;28;19924;-79
2024/03/16 11:04:06;;;;;;;;;;;;;;;;;;5015590;28;20368;-78
2024/03/16 11:09:48;;;;;;;;;;;;;;;;;;5017609;28;19923;-79
2024/03/16 11:12:13;;;;;;;;;;;;;;;;;;5014181;28;20307;-80
2024/03/16 11:14:38;;;;;;;;;;;;;;;;;;5000173;28;21495;-79
2024/03/16 11:17:03;;;;;;;;;;;;;;;;;;4978005;28;20411;-79
2024/03/16 11:19:29;;;;;;;;;;;;;;;;;;5017521;28;19924;-80
2024/03/16 11:21:57;;;;;;;;;;;;;;;;;;5010752;28;19932;-77
2024/03/16 11:24:23;;;;;;;;;;;;;;;;;;5000767;28;19921;-77
2024/03/16 11:26:49;;;;;;;;;;;;;;;;;;4994084;28;19928;-80
2024/03/16 11:29:15;;;;;;;;;;;;;;;;;;5017683;28;19928;-79
2024/03/16 11:31:40;;;;;;;;;;;;;;;;;;4999434;28;19913;-82
2024/03/16 11:34:08;;;;;;;;;;;;;;;;;;4983726;28;20012;-78
2024/03/16 11:36:35;;;;;;;;;;;;;;;;;;5013464;28;21428;-79
2024/03/16 11:39:10;;;;;;;;;;;;;;;;;;4994969;28;19921;-80
2024/03/16 11:41:36;;;;;;;;;;;;;;;;;;5015153;28;19918;-78
2024/03/16 11:44:03;;;;;;;;;;;;;;;;;;4992982;28;19920;-79
2024/03/16 11:46:28;;;;;;;;;;;;;;;;;;5015359;28;19971;-77
2024/03/16 11:48:54;;;;;;;;;;;;;;;;;;5014280;28;19920;-81
2024/03/16 11:51:20;;;;;;;;;;;;;;;;;;5015002;28;19917;-77
2024/03/16 11:53:45;;;;;;;;;;;;;;;;;;5014752;28;19921;-77
2024/03/16 11:56:11;;;;;;;;;;;;;;;;;;5014502;28;19959;-77
2024/03/16 11:58:37;;;;;;;;;;;;;;;;;;4992967;28;19940;-78
2024/03/16 12:01:03;;;;;;;;;;;;;;;;;;4992637;28;20059;-79
2024/03/16 12:03:28;;;;;;;;;;;;;;;;;;4995589;28;19973;-78
2024/03/16 12:05:54;;;;;;;;;;;;;;;;;;4992537;28;19960;-80
2024/03/16 12:08:19;;;;;;;;;;;;;;;;;;5012278;28;20000;-78
2024/03/16 12:10:45;;;;;;;;;;;;;;;;;;4995860;28;19929;-82
2024/03/16 12:13:10;;;;;;;;;;;;;;;;;;5012322;28;19968;-80
2024/03/16 12:15:35;;;;;;;;;;;;;;;;;;4998153;28;19983;-80
2024/03/16 12:18:01;;;;;;;;;;;;;;;;;;4995337;28;20007;-76
2024/03/16 12:20:27;;;;;;;;;;;;;;;;;;4996331;28;19929;-83
2024/03/16 12:22:55;;;;;;;;;;;;;;;;;;5021173;28;20311;-84
2024/03/16 12:25:27;;;;;;;;;;;;;;;;;;4985792;28;19929;-79
2024/03/16 12:27:52;;;;;;;;;;;;;;;;;;5017493;28;19967;-76
2024/03/16 12:30:17;;;;;;;;;;;;;;;;;;5017506;28;19921;-81
2024/03/16 12:32:43;;;;;;;;;;;;;;;;;;4996928;28;20600;-80
2024/03/16 12:35:09;;;;;;;;;;;;;;;;;;5012820;28;20079;-77
2024/03/16 12:37:34;;;;;;;;;;;;;;;;;;5013454;28;19921;-78
2024/03/16 12:40:00;;;;;;;;;;;;;;;;;;5014965;28;20428;-80
2024/03/16 12:42:25;;;;;;;;;;;;;;;;;;4996103;28;20553;-81
2024/03/16 12:44:51;;;;;;;;;;;;;;;;;;5017543;28;19924;-81
2024/03/16 12:47:16;;;;;;;;;;;;;;;;;;5001251;28;19922;-82
2024/03/16 12:49:44;;;;;;;;;;;;;;;;;;5018105;28;20003;-82
2024/03/16 12:52:09;;;;;;;;;;;;;;;;;;4995786;28;19921;-78
2024/03/16 12:54:34;;;;;;;;;;;;;;;;;;4995658;28;19928;-78
2024/03/16 12:57:00;;;;;;;;;;;;;;;;;;4991956;28;19925;-80
2024/03/16 12:59:25;;;;;;;;;;;;;;;;;;4994967;28;20676;-78
2024/03/16 13:01:53;;;;;;;;;;;;;;;;;;5013340;28;19957;-81
2024/03/16 13:04:19;;;;;;;;;;;;;;;;;;5015683;28;20012;-81
2024/03/16 13:06:44;;;;;;;;;;;;;;;;;;5001880;28;19960;-78
2024/03/16 13:09:10;;;;;;;;;;;;;;;;;;4989823;28;19921;-79
2024/03/16 13:11:36;;;;;;;;;;;;;;;;;;5018520;28;19922;-79
2024/03/16 13:14:01;;;;;;;;;;;;;;;;;;5015607;28;19928;-76
2024/03/16 13:16:26;;;;;;;;;;;;;;;;;;5015729;28;19945;-77
2024/03/16 13:22:07;;;;;;;;;;;;;;;;;;5013690;28;19924;-79
2024/03/16 13:24:33;;;;;;;;;;;;;;;;;;4993747;28;19921;-76
2024/03/16 13:26:59;;;;;;;;;;;;;;;;;;4995090;28;19967;-77
2024/03/16 13:29:24;;;;;;;;;;;;;;;;;;4990444;28;20069;-76
2024/03/16 13:31:49;;;;;;;;;;;;;;;;;;5011773;28;20039;-78
2024/03/16 13:34:15;;;;;;;;;;;;;;;;;;4991223;28;19971;-79
2024/03/16 13:36:40;;;;;;;;;;;;;;;;;;5013157;28;19929;-80
2024/03/16 13:39:08;;;;;;;;;;;;;;;;;;4993296;28;20369;-79
2024/03/16 13:41:34;;;;;;;;;;;;;;;;;;4981390;28;19967;-77
2024/03/16 13:43:59;;;;;;;;;;;;;;;;;;4992084;28;20128;-80
2024/03/16 13:46:24;;;;;;;;;;;;;;;;;;5015787;28;19943;-77
2024/03/16 13:48:50;;;;;;;;;;;;;;;;;;5013055;28;19921;-76
2024/03/16 13:51:18;;;;;;;;;;;;;;;;;;5012797;28;20271;-78
2024/03/16 13:53:43;;;;;;;;;;;;;;;;;;4982964;28;20372;-79
2024/03/16 13:56:08;;;;;;;;;;;;;;;;;;5010800;28;20295;-75
2024/03/16 13:58:34;;;;;;;;;;;;;;;;;;5015793;28;19961;-80
2024/03/16 14:01:00;;;;;;;;;;;;;;;;;;4995332;28;20599;-79
2024/03/16 14:03:26;;;;;;;;;;;;;;;;;;5015419;28;19917;-79
2024/03/16 14:05:51;;;;;;;;;;;;;;;;;;4996334;28;19952;-76
2024/03/16 14:08:16;;;;;;;;;;;;;;;;;;4995800;28;19924;-78
2024/03/16 14:10:42;;;;;;;;;;;;;;;;;;4995998;28;19924;-79
2024/03/16 14:13:07;;;;;;;;;;;;;;;;;;4975709;28;19933;-79
2024/03/16 14:15:32;;;;;;;;;;;;;;;;;;4977792;28;19977;-81
2024/03/16 14:17:58;;;;;;;;;;;;;;;;;;4976068;28;19949;-76
2024/03/16 14:20:30;;;;;;;;;;;;;;;;;;4991577;28;19936;-79
2024/03/16 14:22:55;;;;;;;;;;;;;;;;;;4974704;28;19922;-77
2024/03/16 14:25:21;;;;;;;;;;;;;;;;;;4973140;28;19925;-76
2024/03/16 14:27:47;;;;;;;;;;;;;;;;;;4986056;28;19963;-75
2024/03/16 14:30:15;;;;;;;;;;;;;;;;;;4989772;28;19918;-78
2024/03/16 14:32:41;;;;;;;;;;;;;;;;;;4987025;28;19940;-75
2024/03/16 14:35:09;;;;;;;;;;;;;;;;;;4977857;28;19954;-75
2024/03/16 14:40:50;;;;;;;;;;;;;;;;;;4988694;28;19924;-75
2024/03/16 14:43:19;;;;;;;;;;;;;;;;;;4965690;28;19921;-77
2024/03/16 14:45:44;;;;;;;;;;;;;;;;;;4986503;28;19921;-75
2024/03/16 14:48:09;;;;;;;;;;;;;;;;;;4987263;28;19924;-74
2024/03/16 14:50:34;;;;;;;;;;;;;;;;;;4983298;28;19921;-79
2024/03/16 14:53:04;;;;;;;;;;;;;;;;;;4985369;28;19956;-72
2024/03/16 14:55:29;;;;;;;;;;;;;;;;;;4969264;28;19928;-75
2024/03/16 14:57:54;;;;;;;;;;;;;;;;;;4966658;28;19918;-76
2024/03/16 15:00:22;;;;;;;;;;;;;;;;;;4971752;28;19937;-74
2024/03/16 15:02:47;;;;;;;;;;;;;;;;;;4973657;28;19918;-73
2024/03/16 15:05:16;;;;;;;;;;;;;;;;;;4987099;28;20660;-76
2024/03/16 15:07:42;;;;;;;;;;;;;;;;;;4976103;28;19917;-76
2024/03/16 15:10:08;;;;;;;;;;;;;;;;;;4990661;28;20373;-74
2024/03/16 15:12:34;;;;;;;;;;;;;;;;;;4989774;28;20022;-72
2024/03/16 15:15:02;;;;;;;;;;;;;;;;;;4991945;28;19913;-74
2024/03/16 15:17:27;;;;;;;;;;;;;;;;;;4991192;28;20062;-76
2024/03/16 15:19:52;;;;;;;;;;;;;;;;;;4991749;28;21552;-75
2024/03/16 15:22:21;;;;;;;;;;;;;;;;;;4989879;28;19921;-76
2024/03/16 15:24:47;;;;;;;;;;;;;;;;;;4994573;28;20012;-75
2024/03/16 15:29:47;;;;;;;;;;;;;;;;;;5010590;28;19928;-75
2024/03/16 15:32:12;;;;;;;;;;;;;;;;;;5005270;28;20864;-74
2024/03/16 15:34:38;;;;;;;;;;;;;;;;;;5009209;28;19969;-77
2024/03/16 15:37:06;;;;;;;;;;;;;;;;;;4993983;28;20287;-75
2024/03/16 15:39:32;;;;;;;;;;;;;;;;;;5000682;28;19956;-77
2024/03/16 15:41:58;;;;;;;;;;;;;;;;;;4991677;28;19921;-77
2024/03/16 15:44:23;;;;;;;;;;;;;;;;;;5011877;28;19978;-75
2024/03/16 15:46:49;;;;;;;;;;;;;;;;;;4977046;28;20224;-76
2024/03/16 15:49:15;;;;;;;;;;;;;;;;;;5007687;28;19921;-77
2024/03/16 15:51:40;;;;;;;;;;;;;;;;;;5009028;28;21683;-77
2024/03/16 15:54:06;;;;;;;;;;;;;;;;;;4969597;28;19921;-77
2024/03/16 15:56:32;;;;;;;;;;;;;;;;;;5008670;28;19960;-77
2024/03/16 15:58:59;;;;;;;;;;;;;;;;;;4989194;28;19956;-75
2024/03/16 16:01:26;;;;;;;;;;;;;;;;;;4978633;28;19928;-76
2024/03/16 16:03:51;;;;;;;;;;;;;;;;;;5008098;28;19921;-75
2024/03/16 16:06:16;;;;;;;;;;;;;;;;;;5007676;28;20183;-75
2024/03/16 16:08:42;;;;;;;;;;;;;;;;;;5010195;28;20056;-74
2024/03/16 16:11:10;;;;;;;;;;;;;;;;;;4991548;28;20293;-75
2024/03/16 16:13:35;;;;;;;;;;;;;;;;;;5008376;28;20420;-73
2024/03/16 16:16:00;;;;;;;;;;;;;;;;;;4991649;28;19925;-74
2024/03/16 16:18:26;;;;;;;;;;;;;;;;;;5005987;28;19955;-74
2024/03/16 16:20:51;;;;;;;;;;;;;;;;;;5006501;28;20189;-72
2024/03/16 16:23:16;;;;;;;;;;;;;;;;;;4988835;28;19929;-73
2024/03/16 16:25:42;;;;;;;;;;;;;;;;;;4990047;28;19921;-73
2024/03/16 16:28:11;;;;;;;;;;;;;;;;;;5005030;28;19940;-74
2024/03/16 16:30:37;;;;;;;;;;;;;;;;;;4972233;28;19964;-74
2024/03/16 16:33:05;;;;;;;;;;;;;;;;;;4994781;28;20003;-73
2024/03/16 16:35:33;;;;;;;;;;;;;;;;;;5009164;28;22214;-72
2024/03/16 16:37:58;;;;;;;;;;;;;;;;;;4992519;28;20039;-72
2024/03/16 16:40:23;;;;;;;;;;;;;;;;;;4991031;28;19932;-75
2024/03/16 16:42:49;;;;;;;;;;;;;;;;;;5007853;28;19957;-73
2024/03/16 16:45:14;;;;;;;;;;;;;;;;;;4994504;28;19917;-74
2024/03/16 16:47:40;;;;;;;;;;;;;;;;;;4990689;28;20437;-73
2024/03/16 16:50:05;;;;;;;;;;;;;;;;;;5010397;28;20281;-73
2024/03/16 16:52:30;;;;;;;;;;;;;;;;;;4989408;28;19921;-74
2024/03/16 16:54:56;;;;;;;;;;;;;;;;;;5009409;28;20020;-74
2024/03/16 16:57:21;;;;;;;;;;;;;;;;;;4989737;28;19961;-74
2024/03/16 16:59:46;;;;;;;;;;;;;;;;;;4988306;28;20430;-73
2024/03/16 17:02:12;;;;;;;;;;;;;;;;;;4988601;28;19921;-74
2024/03/16 17:04:38;;;;;;;;;;;;;;;;;;5008130;28;20085;-74